METAR stanice u blizini

 

LYBE - Beograd / Surčin, Srbija
Ažurirano: 25/09/2022 04:00
Vedro
Vedro
 Pravac vetra I
Vetar: I 6 km/h
Temperatura: 10°C
Tačka rose: 8°C
Vlažnost: 88%
Pritisak: 1016 hPa
Pregled: Vedro
Vidljivost: greater than 10 km
2022/09/25 02:00 LYBE 250200Z 08003KT 030V120 CAVOK 10/08 Q1016 NOSIG
LYBT - Beograd / Batajnica, Srbija
Ažurirano: 25/09/2022 04:00
Vedro
Vedro
 Pravac vetra IJI
Vetar: IJI 4 km/h
Temperatura: 10°C
Tačka rose: 10°C
Vlažnost: 100%
Pritisak: 1016 hPa
Pregled: Vedro
Vidljivost: greater than 10 km
2022/09/25 02:00 LYBT 250200Z 11002KT CAVOK 10/10 Q1016 NOSIG
LYVR - Vršac, Srbija
Ažurirano: 25/09/2022 04:00
Vedro
Vedro
 Pravac vetra JI
Vetar: JI 19 km/h
Temperatura: 16°C
Tačka rose: 5°C
Vlažnost: 48%
Pritisak: 1016 hPa
Pregled: Vedro
Vidljivost: greater than 10 km
2022/09/25 02:00 LYVR 250200Z AUTO 13010KT 100V170 CAVOK 16/05 Q1016
 
LYKV - Lađevci, Srbija
Ažurirano: 25/09/2022 04:00
Vedro
Vedro
 Pravac vetra varies
Vetar: varies 2 km/h
Temperatura: 6°C
Tačka rose: 6°C
Vlažnost: 100%
Pritisak: 1017 hPa
Pregled: Vedro
Vidljivost: greater than 10 km
2022/09/25 02:00 LYKV 250200Z VRB01KT CAVOK 06/06 Q1017 NOSIG
LYNI - Niš, Srbija
Ažurirano: 25/09/2022 04:00
Vedro
Vedro
 Pravac vetra varies
Vetar: varies 4 km/h
Temperatura: 8°C
Tačka rose: 6°C
Vlažnost: 87%
Pritisak: 1019 hPa
Pregled: Vedro
Vidljivost: greater than 10 km
2022/09/25 02:00 LYNI 250200Z VRB02KT CAVOK 08/06 Q1019 NOSIG
BKPR - Priština, Srbija
Ažurirano: 25/09/2022 04:30
Vedro
Vedro
 Pravac vetra varies
Vetar: varies 2 km/h
Temperatura: 4°C
Tačka rose: 3°C
Vlažnost: 93%
Pritisak: 1020 hPa
Pregled: Vedro
Vidljivost: greater than 10 km
2022/09/25 02:30 BKPR 250230Z VRB01KT CAVOK 04/03 Q1020 NOSIG
 
LHPP - Pecs / Pogany, Hungary
Ažurirano: 25/09/2022 03:45
Vedro
Vedro
 Pravac vetra calm
Vetar: Tišina
Temperatura: 13°C
Tačka rose: 8°C
Vlažnost: 72%
Pritisak: 1015 hPa
Pregled: Vedro
Vidljivost: greater than 10 km
2022/09/25 01:45 LHPP 250145Z AUTO 00000KT CAVOK 13/08 Q1015
LHUD - Szeged, Hungary
Ažurirano: 04/07/2019 01:45
NOT Current
Vedro
Vedro
 Pravac vetra S
Vetar: S 7 km/h
Temperatura: 18°C
Tačka rose: 13°C
Vlažnost: 73%
Pritisak: 1019 hPa
Pregled: Vedro
Vidljivost: greater than 10 km
2019/07/03 23:45 LHUD 032345Z 35004KT CAVOK 18/13 Q1019
LRTR - Timisoara, Romania
Ažurirano: 25/09/2022 04:00
Vedro
Vedro
 Pravac vetra I
Vetar: I 13 km/h
Temperatura: 9°C
Osećaj hladnoće: 7°C
Tačka rose: 8°C
Vlažnost: 94%
Pritisak: 1016 hPa
Pregled: Vedro
Vidljivost: greater than 10 km
2022/09/25 02:00 LRTR 250200Z 10007KT CAVOK 09/08 Q1016
 
LRCV - Craiova, Romania
Ažurirano: 25/09/2022 04:00
Vedro
Vedro
 Pravac vetra SI
Vetar: SI 11 km/h
Temperatura: 8°C
Osećaj hladnoće: 6°C
Tačka rose: 5°C
Vlažnost: 82%
Pritisak: 1018 hPa
Pregled: Vedro
Vidljivost: greater than 10 km
2022/09/25 02:00 LRCV 250200Z 04006KT CAVOK 08/05 Q1018
LBSF - Sofia, Bulgaria
Ažurirano: 25/09/2022 04:00
Partly Cloudy
Partly Cloudy
 Pravac vetra I
Vetar: I 6 km/h
Temperatura: 4°C
Tačka rose: 3°C
Vlažnost: 93%
Pritisak: 1020 hPa
Oblaci: Partly Cloudy
Vidljivost: 10 km
2022/09/25 02:00 LBSF 250200Z AUTO 10003KT 9999 NSC 04/03 Q1020 NOSIG
LWSK - Skoplje, Makedonija
Ažurirano: 25/09/2022 04:00
Vedro
Vedro
 Pravac vetra calm
Vetar: Tišina
Temperatura: 5°C
Tačka rose: 3°C
Vlažnost: 87%
Pritisak: 1020 hPa
Pregled: Vedro
Vidljivost: greater than 10 km
2022/09/25 02:00 LWSK 250200Z 00000KT CAVOK 05/03 Q1020 NOSIG
 
LYPG - Podgorica, Crna Gora
Ažurirano: 25/09/2022 04:00
Vedro
Vedro
 Pravac vetra S
Vetar: S 6 km/h
Temperatura: 11°C
Tačka rose: 4°C
Vlažnost: 62%
Pritisak: 1020 hPa
Pregled: Vedro
Vidljivost: greater than 10 km
2022/09/25 02:00 LYPG 250200Z 35003KT CAVOK 11/04 Q1020 NOSIG
LQSA - Sarajevo, Bosna i Hercegovina
Ažurirano: 25/09/2022 04:00
Vedro
Vedro
 Pravac vetra varies
Vetar: varies 4 km/h
Temperatura: 8°C
Tačka rose: 7°C
Vlažnost: 93%
Pritisak: 1018 hPa
Pregled: Vedro
Vidljivost: greater than 10 km
2022/09/25 02:00 LQSA 250200Z VRB02KT CAVOK 08/07 Q1018
LDOS - Osijek, Hrvatksa
Ažurirano: 25/09/2022 04:00
Vedro
Vedro
 Pravac vetra JI
Vetar: JI 6 km/h
Temperatura: 10°C
Tačka rose: 9°C
Vlažnost: 94%
Pritisak: 1015 hPa
Pregled: Vedro
Vidljivost: greater than 10 km
2022/09/25 02:00 LDOS 250200Z 14003KT CAVOK 10/09 Q1015